createdAt,value
2022-11-28T00:00:42.984Z,100665.75
2022-11-28T00:04:54.541Z,100656.94
2022-11-28T00:09:07.572Z,100653.84
2022-11-28T00:13:19.136Z,100661.03
2022-11-28T00:17:30.871Z,100662.91
2022-11-28T00:21:43.090Z,100642.13
2022-11-28T00:26:04.591Z,100660.84
2022-11-28T00:30:16.388Z,100648.91
2022-11-28T00:34:28.012Z,100656.13
2022-11-28T00:38:40.018Z,100645.00
2022-11-28T00:42:51.560Z,100634.09
2022-11-28T00:47:03.184Z,100644.81
2022-11-28T00:51:19.762Z,100637.41
2022-11-28T00:55:31.326Z,100634.53
2022-11-28T00:59:42.900Z,100628.97
2022-11-28T01:03:56.415Z,100629.56
2022-11-28T01:08:08.072Z,100618.03
2022-11-28T01:12:19.571Z,100617.22
2022-11-28T01:16:31.523Z,100615.56
2022-11-28T01:20:43.190Z,100604.47
2022-11-28T01:24:55.098Z,100605.03
2022-11-28T01:29:07.709Z,100599.88
2022-11-28T01:33:19.296Z,100591.66
2022-11-28T01:37:30.987Z,100595.31
2022-11-28T01:41:42.572Z,100588.13
2022-11-28T01:45:54.391Z,100595.72
2022-11-28T01:50:07.143Z,100587.88
2022-11-28T01:54:20.648Z,100591.78
2022-11-28T01:58:36.575Z,100589.72
2022-11-28T02:02:49.511Z,100598.56
2022-11-28T02:07:01.169Z,100593.00
2022-11-28T02:11:40.359Z,100576.75
2022-11-28T02:16:35.927Z,100595.25
2022-11-28T02:21:09.402Z,100578.59
2022-11-28T02:25:58.652Z,100582.09
2022-11-28T02:30:21.107Z,100572.63
2022-11-28T02:34:35.815Z,100586.81
2022-11-28T02:39:06.072Z,100584.78
2022-11-28T02:43:30.552Z,100578.00
2022-11-28T02:47:54.491Z,100566.47
2022-11-28T02:52:19.569Z,100566.47
2022-11-28T02:56:31.436Z,100573.06
2022-11-28T03:00:44.899Z,100567.09
2022-11-28T03:05:07.854Z,100577.41
2022-11-28T03:09:19.331Z,100567.94
2022-11-28T03:13:52.373Z,100565.66
2022-11-28T03:18:23.401Z,100563.22
2022-11-28T03:22:52.364Z,100570.63
2022-11-28T03:27:09.956Z,100555.59
2022-11-28T03:31:27.263Z,100574.72
2022-11-28T03:35:47.268Z,100576.16
2022-11-28T03:40:05.251Z,100574.50
2022-11-28T03:44:26.008Z,100572.44
2022-11-28T03:48:45.636Z,100566.47
2022-11-28T03:53:03.074Z,100573.28
2022-11-28T03:57:29.764Z,100577.16
2022-11-28T04:01:56.514Z,100566.06
2022-11-28T04:06:27.811Z,100571.59
2022-11-28T04:10:49.075Z,100567.28
2022-11-28T04:15:09.711Z,100570.16
2022-11-28T04:19:36.802Z,100577.16
2022-11-28T04:23:51.740Z,100570.97
2022-11-28T04:28:08.768Z,100581.69
2022-11-28T04:32:22.230Z,100582.94
2022-11-28T04:36:37.222Z,100580.47
2022-11-28T04:41:05.946Z,100579.03
2022-11-28T04:45:26.888Z,100578.81
2022-11-28T04:49:39.279Z,100569.56
2022-11-28T04:54:04.688Z,100581.28
2022-11-28T04:58:29.160Z,100586.84
2022-11-28T05:02:42.856Z,100579.44
2022-11-28T05:07:02.584Z,100581.06
2022-11-28T05:11:14.005Z,100585.81
2022-11-28T05:15:25.465Z,100576.56
2022-11-28T05:19:36.882Z,100591.97
2022-11-28T05:23:48.714Z,100581.50
2022-11-28T05:28:00.327Z,100589.91
2022-11-28T05:32:12.339Z,100597.13
2022-11-28T05:36:24.220Z,100598.78
2022-11-28T05:40:35.764Z,100598.78
2022-11-28T05:44:48.006Z,100600.63
2022-11-28T05:48:59.780Z,100600.22
2022-11-28T05:53:11.942Z,100601.03
2022-11-28T05:57:23.526Z,100603.50
2022-11-28T06:01:35.003Z,100609.66
2022-11-28T06:05:46.620Z,100608.84
2022-11-28T06:09:58.155Z,100606.38
2022-11-28T06:14:10.930Z,100603.28
2022-11-28T06:18:22.379Z,100599.19
2022-11-28T06:22:34.255Z,100607.56
2022-11-28T06:26:45.800Z,100606.53
2022-11-28T06:30:57.271Z,100615.41
2022-11-28T06:35:08.871Z,100611.47
2022-11-28T06:39:20.367Z,100606.13
2022-11-28T06:43:31.894Z,100608.81
2022-11-28T06:47:43.594Z,100621.75
2022-11-28T06:51:55.039Z,100611.91
2022-11-28T06:56:12.401Z,100618.47
2022-11-28T07:00:24.087Z,100619.91
2022-11-28T07:04:35.618Z,100621.56
2022-11-28T07:08:47.672Z,100632.47
2022-11-28T07:13:05.079Z,100627.72
2022-11-28T07:17:17.226Z,100631.03
2022-11-28T07:21:30.143Z,100634.09
2022-11-28T07:25:41.778Z,100625.25
2022-11-28T07:29:53.319Z,100629.78
2022-11-28T07:34:04.824Z,100631.44
2022-11-28T07:38:16.303Z,100633.69
2022-11-28T07:42:27.999Z,100642.13
2022-11-28T07:46:48.042Z,100645.44
2022-11-28T07:50:59.703Z,100639.47
2022-11-28T07:55:11.143Z,100637.97
2022-11-28T07:59:22.746Z,100647.03
2022-11-28T08:03:34.298Z,100645.78
2022-11-28T08:07:45.845Z,100651.75
2022-11-28T08:11:57.637Z,100657.72
2022-11-28T08:16:14.155Z,100657.94
2022-11-28T08:20:25.777Z,100652.78
2022-11-28T08:24:37.474Z,100662.88
2022-11-28T08:28:51.592Z,100671.53
2022-11-28T08:33:03.115Z,100662.66
2022-11-28T08:37:14.657Z,100664.72
2022-11-28T08:41:26.204Z,100666.56
2022-11-28T08:45:38.233Z,100673.34
2022-11-28T08:49:49.943Z,100658.75
2022-11-28T08:54:01.538Z,100683.63
2022-11-28T08:58:14.020Z,100672.69
2022-11-28T09:02:26.252Z,100675.16
2022-11-28T09:06:40.940Z,100680.09
2022-11-28T09:10:52.443Z,100661.22
2022-11-28T09:15:04.412Z,100674.75
2022-11-28T09:19:15.904Z,100690.19
2022-11-28T09:23:28.278Z,100695.13
2022-11-28T09:27:42.669Z,100696.31
2022-11-28T09:31:54.142Z,100686.63
2022-11-28T09:36:07.515Z,100693.00
2022-11-28T09:40:30.629Z,100690.53
2022-11-28T09:44:48.368Z,100673.69
2022-11-28T09:49:04.641Z,100704.06
2022-11-28T09:53:22.652Z,100698.50
2022-11-28T09:57:49.632Z,100667.66
2022-11-28T10:02:09.776Z,100683.22
2022-11-28T10:06:37.058Z,100692.06
2022-11-28T10:10:57.515Z,100704.63
2022-11-28T10:15:18.970Z,100709.97
2022-11-28T10:19:56.964Z,100705.03
2022-11-28T10:24:38.359Z,100708.13
2022-11-28T10:28:53.766Z,100713.22
2022-11-28T10:33:19.161Z,100716.53
2022-11-28T10:37:34.591Z,100716.72
2022-11-28T10:42:11.906Z,100713.81
2022-11-28T10:46:41.796Z,100697.31
2022-11-28T10:50:59.686Z,100695.84
2022-11-28T10:55:36.879Z,100699.47
2022-11-28T11:00:09.627Z,100696.59
2022-11-28T11:04:24.210Z,100677.28
2022-11-28T11:08:38.240Z,100695.66
2022-11-28T11:12:54.693Z,100692.53
2022-11-28T11:17:06.857Z,100669.34
2022-11-28T11:21:24.439Z,100687.56
2022-11-28T11:25:36.290Z,100690.84
2022-11-28T11:29:51.355Z,100686.69
2022-11-28T11:34:04.762Z,100690.81
2022-11-28T11:38:22.400Z,100686.28
2022-11-28T11:42:33.971Z,100687.31
2022-11-28T11:46:52.604Z,100691.78
2022-11-28T11:51:05.045Z,100697.34
2022-11-28T11:55:17.517Z,100706.22
2022-11-28T11:59:31.453Z,100710.56
2022-11-28T12:03:58.581Z,100713.84
2022-11-28T12:08:31.564Z,100696.19
2022-11-28T12:12:43.392Z,100707.88
2022-11-28T12:17:47.728Z,100721.47
2022-11-28T12:22:25.673Z,100697.44
2022-11-28T12:26:57.270Z,100714.88
2022-11-28T12:31:19.374Z,100715.28
2022-11-28T12:35:49.008Z,100689.38
2022-11-28T12:40:56.107Z,100713.38
2022-11-28T12:45:18.552Z,100705.31
2022-11-28T12:49:57.925Z,100728.19
2022-11-28T12:54:37.880Z,100718.88
2022-11-28T12:59:35.433Z,100717.63
2022-11-28T13:04:04.474Z,100711.41
2022-11-28T13:08:48.216Z,100705.63
2022-11-28T13:13:13.654Z,100706.00
2022-11-28T13:17:30.839Z,100713.41
2022-11-28T13:22:01.069Z,100717.28
2022-11-28T13:26:22.715Z,100713.78
2022-11-28T13:30:43.417Z,100716.25
2022-11-28T13:34:55.493Z,100713.19
2022-11-28T13:39:16.788Z,100729.44
2022-11-28T13:43:56.980Z,100713.19
2022-11-28T13:49:06.225Z,100716.84
2022-11-28T13:53:10.321Z,100732.75
2022-11-28T13:57:35.725Z,100736.47
2022-11-28T14:01:58.968Z,100724.75
2022-11-28T14:06:14.533Z,100726.59
2022-11-28T14:10:50.478Z,100747.22
2022-11-28T14:15:26.304Z,100744.75
2022-11-28T14:20:24.214Z,100748.25
2022-11-28T14:24:56.041Z,100742.88
2022-11-28T14:29:21.276Z,100756.84
2022-11-28T14:33:44.302Z,100761.41
2022-11-28T14:37:57.720Z,100761.47
2022-11-28T14:42:09.924Z,100762.44
2022-11-28T14:46:29.027Z,100773.78
2022-11-28T14:50:41.319Z,100769.69
2022-11-28T14:54:54.621Z,100757.13
2022-11-28T14:59:10.985Z,100747.03
2022-11-28T15:03:49.814Z,100774.00
2022-11-28T15:08:32.835Z,100749.94
2022-11-28T15:13:11.318Z,100775.88
2022-11-28T15:17:33.523Z,100745.88
2022-11-28T15:21:51.737Z,100770.34
2022-11-28T15:26:03.593Z,100775.09
2022-11-28T15:30:17.895Z,100769.78
2022-11-28T15:34:37.678Z,100788.03
2022-11-28T15:38:49.387Z,100789.69
2022-11-28T15:43:03.365Z,100801.47
2022-11-28T15:47:21.502Z,100780.47
2022-11-28T15:51:35.550Z,100797.75
2022-11-28T15:55:47.634Z,100807.66
2022-11-28T15:59:59.268Z,100810.91
2022-11-28T16:04:14.894Z,100810.56
2022-11-28T16:08:30.524Z,100787.09
2022-11-28T16:12:42.154Z,100801.50
2022-11-28T16:16:54.168Z,100807.41
2022-11-28T16:21:12.918Z,100818.97
2022-11-28T16:25:26.500Z,100822.69
2022-11-28T16:29:46.495Z,100826.66
2022-11-28T16:33:59.873Z,100825.38
2022-11-28T16:38:24.805Z,100829.28
2022-11-28T16:42:36.350Z,100839.97
2022-11-28T16:46:56.498Z,100838.41
2022-11-28T16:51:10.984Z,100839.09
2022-11-28T16:55:28.732Z,100842.44
2022-11-28T16:59:44.671Z,100846.16
2022-11-28T17:03:57.743Z,100848.84
2022-11-28T17:08:09.298Z,100848.84
2022-11-28T17:12:29.512Z,100861.63
2022-11-28T17:16:42.092Z,100861.47
2022-11-28T17:20:53.984Z,100873.47
2022-11-28T17:25:07.862Z,100884.81
2022-11-28T17:29:20.205Z,100888.53
2022-11-28T17:33:31.847Z,100876.78
2022-11-28T17:37:43.550Z,100880.31
2022-11-28T17:41:56.935Z,100869.16
2022-11-28T17:46:09.032Z,100894.34
2022-11-28T17:50:20.729Z,100885.06
2022-11-28T17:54:32.542Z,100886.09
2022-11-28T17:58:44.929Z,100901.56
2022-11-28T18:02:57.788Z,100902.81
2022-11-28T18:07:09.642Z,100911.72
2022-11-28T18:11:21.255Z,100904.25
2022-11-28T18:15:35.661Z,100910.44
2022-11-28T18:19:47.427Z,100906.56
2022-11-28T18:23:59.308Z,100907.59
2022-11-28T18:28:18.459Z,100913.97
2022-11-28T18:32:32.636Z,100920.38
2022-11-28T18:36:44.768Z,100926.34
2022-11-28T18:40:56.330Z,100922.41
2022-11-28T18:45:10.828Z,100923.44
2022-11-28T18:49:22.493Z,100923.88
2022-11-28T18:53:34.103Z,100925.81
2022-11-28T18:57:45.787Z,100933.47
2022-11-28T19:01:57.608Z,100925.44
2022-11-28T19:06:12.037Z,100931.22
2022-11-28T19:10:23.646Z,100926.69
2022-11-28T19:14:35.473Z,100941.34
2022-11-28T19:18:47.556Z,100928.56
2022-11-28T19:22:59.244Z,100932.69
2022-11-28T19:27:14.290Z,100941.38
2022-11-28T19:31:30.011Z,100938.31
2022-11-28T19:35:43.131Z,100945.75
2022-11-28T19:39:58.530Z,100941.63
2022-11-28T19:44:13.144Z,100951.75
2022-11-28T19:48:24.826Z,100945.19
2022-11-28T19:52:36.780Z,100953.19
2022-11-28T19:57:02.556Z,100960.00
2022-11-28T20:01:19.572Z,100976.72
2022-11-28T20:05:32.872Z,100964.56
2022-11-28T20:09:45.448Z,100973.50
2022-11-28T20:14:03.518Z,100974.13
2022-11-28T20:18:15.122Z,100983.06
2022-11-28T20:22:26.767Z,100969.44
2022-11-28T20:26:41.548Z,100975.47
2022-11-28T20:30:53.683Z,100980.44
2022-11-28T20:35:05.632Z,100980.69
2022-11-28T20:39:17.529Z,100993.88
2022-11-28T20:43:30.886Z,100998.00
2022-11-28T20:47:48.281Z,100995.56
2022-11-28T20:52:01.357Z,101001.97
2022-11-28T20:56:15.738Z,101019.06
2022-11-28T21:00:27.288Z,101016.41
2022-11-28T21:04:38.878Z,101018.84
2022-11-28T21:08:50.470Z,101011.41
2022-11-28T21:13:02.015Z,101015.72
2022-11-28T21:17:13.500Z,101015.50
2022-11-28T21:21:27.429Z,101012.41
2022-11-28T21:25:40.796Z,101016.53
2022-11-28T21:29:52.756Z,101028.91
2022-11-28T21:34:04.573Z,101014.06
2022-11-28T21:38:16.100Z,101030.38
2022-11-28T21:42:27.795Z,101027.25
2022-11-28T21:46:39.441Z,101032.63
2022-11-28T21:50:51.593Z,101039.22
2022-11-28T21:55:03.496Z,101044.59
2022-11-28T21:59:15.412Z,101047.03
2022-11-28T22:03:28.557Z,101046.47
2022-11-28T22:07:40.275Z,101057.78
2022-11-28T22:11:52.149Z,101046.66
2022-11-28T22:16:19.606Z,101048.06
2022-11-28T22:20:31.178Z,101051.38
2022-11-28T22:24:42.768Z,101049.34
2022-11-28T22:28:54.658Z,101059.41
2022-11-28T22:33:07.939Z,101060.03
2022-11-28T22:37:19.445Z,101061.91
2022-11-28T22:41:31.247Z,101062.31
2022-11-28T22:45:43.588Z,101064.16
2022-11-28T22:49:55.211Z,101084.19
2022-11-28T22:54:11.132Z,101075.72
2022-11-28T22:58:22.792Z,101068.31
2022-11-28T23:02:34.750Z,101071.22
2022-11-28T23:06:46.319Z,101085.25
2022-11-28T23:10:58.131Z,101081.13
2022-11-28T23:15:10.179Z,101081.13
2022-11-28T23:19:21.728Z,101088.75
2022-11-28T23:23:35.418Z,101096.19
2022-11-28T23:27:46.940Z,101086.47
2022-11-28T23:31:58.550Z,101092.66
2022-11-28T23:36:17.753Z,101097.00
2022-11-28T23:40:29.501Z,101095.97
2022-11-28T23:44:41.241Z,101100.09
2022-11-28T23:48:53.493Z,101100.09
2022-11-28T23:53:05.094Z,101098.25
2022-11-28T23:57:17.084Z,101105.06
